createdAt,value
2023-11-10T00:00:53.641Z,4.60
2023-11-10T00:03:41.999Z,4.80
2023-11-10T00:06:10.481Z,4.40
2023-11-10T00:08:38.712Z,4.00
2023-11-10T00:11:09.044Z,4.00
2023-11-10T00:13:37.130Z,4.40
2023-11-10T00:16:07.810Z,4.20
2023-11-10T00:18:36.301Z,3.70
2023-11-10T00:21:04.496Z,4.40
2023-11-10T00:23:33.196Z,4.10
2023-11-10T00:26:01.247Z,4.10
2023-11-10T00:28:32.636Z,4.30
2023-11-10T00:31:00.492Z,4.00
2023-11-10T00:33:29.478Z,4.40
2023-11-10T00:35:57.858Z,4.30
2023-11-10T00:38:27.057Z,4.40
2023-11-10T00:40:57.193Z,4.50
2023-11-10T00:43:25.829Z,4.40
2023-11-10T00:45:57.506Z,4.20
2023-11-10T00:48:25.716Z,4.50
2023-11-10T00:50:53.851Z,4.30
2023-11-10T00:53:23.462Z,4.30
2023-11-10T00:55:51.465Z,4.10
2023-11-10T00:58:19.396Z,4.20
2023-11-10T01:00:49.077Z,4.10
2023-11-10T01:03:17.999Z,4.60
2023-11-10T01:05:46.828Z,4.00
2023-11-10T01:08:14.829Z,4.50
2023-11-10T01:10:43.461Z,4.20
2023-11-10T01:13:15.489Z,4.40
2023-11-10T01:15:43.669Z,4.40
2023-11-10T01:18:11.965Z,4.40
2023-11-10T01:20:40.102Z,4.10
2023-11-10T01:23:08.232Z,4.00
2023-11-10T01:25:36.796Z,4.10
2023-11-10T01:28:05.161Z,4.40
2023-11-10T01:30:33.861Z,4.20
2023-11-10T01:33:02.492Z,4.30
2023-11-10T01:35:30.989Z,4.30
2023-11-10T01:37:59.300Z,3.90
2023-11-10T01:40:27.372Z,4.60
2023-11-10T01:42:55.532Z,4.10
2023-11-10T01:45:23.605Z,4.30
2023-11-10T01:47:51.754Z,4.20
2023-11-10T01:50:20.178Z,5.00
2023-11-10T01:52:49.129Z,4.60
2023-11-10T01:55:18.449Z,4.10
2023-11-10T01:57:48.277Z,4.20
2023-11-10T02:00:17.768Z,4.20
2023-11-10T02:02:46.864Z,4.10
2023-11-10T02:05:15.843Z,3.70
2023-11-10T02:07:46.871Z,7.90
2023-11-10T02:10:17.104Z,7.00
2023-11-10T02:12:52.168Z,5.80
2023-11-10T02:15:22.190Z,4.10
2023-11-10T02:17:51.188Z,3.10
2023-11-10T02:20:19.568Z,3.50
2023-11-10T02:22:51.286Z,3.40
2023-11-10T02:25:20.222Z,3.50
2023-11-10T02:27:49.039Z,3.80
2023-11-10T02:30:17.357Z,3.40
2023-11-10T02:32:47.706Z,3.30
2023-11-10T02:35:16.600Z,3.30
2023-11-10T02:37:44.924Z,3.10
2023-11-10T02:40:13.087Z,3.10
2023-11-10T02:42:41.177Z,3.20
2023-11-10T02:45:10.022Z,3.20
2023-11-10T02:47:38.199Z,3.50
2023-11-10T02:50:06.606Z,3.50
2023-11-10T02:52:34.762Z,4.70
2023-11-10T02:55:02.885Z,3.80
2023-11-10T02:57:30.956Z,3.30
2023-11-10T02:59:59.400Z,3.30
2023-11-10T03:02:28.215Z,3.20
2023-11-10T03:04:56.859Z,3.60
2023-11-10T03:07:25.169Z,3.50
2023-11-10T03:09:53.203Z,3.50
2023-11-10T03:12:21.273Z,3.30
2023-11-10T03:14:49.720Z,3.50
2023-11-10T03:17:18.428Z,3.30
2023-11-10T03:19:46.666Z,3.10
2023-11-10T03:22:15.388Z,3.40
2023-11-10T03:24:43.743Z,3.40
2023-11-10T03:27:12.060Z,3.50
2023-11-10T03:29:40.135Z,3.80
2023-11-10T03:32:08.495Z,3.40
2023-11-10T03:34:43.741Z,3.40
2023-11-10T03:37:15.808Z,3.70
2023-11-10T03:39:43.718Z,3.30
2023-11-10T03:42:12.412Z,3.70
2023-11-10T03:44:40.364Z,3.60
2023-11-10T03:47:08.507Z,3.80
2023-11-10T03:49:38.641Z,3.80
2023-11-10T03:52:07.409Z,4.10
2023-11-10T03:54:36.905Z,3.90
2023-11-10T03:57:05.394Z,4.10
2023-11-10T03:59:34.079Z,4.20
2023-11-10T04:02:02.029Z,4.80
2023-11-10T04:04:31.681Z,4.40
2023-11-10T04:06:59.887Z,4.70
2023-11-10T04:09:28.290Z,4.60
2023-11-10T04:11:56.755Z,5.00
2023-11-10T04:14:24.911Z,4.60
2023-11-10T04:16:53.068Z,5.00
2023-11-10T04:19:21.201Z,5.20
2023-11-10T04:21:49.901Z,5.50
2023-11-10T04:24:18.767Z,5.90
2023-11-10T04:26:47.145Z,6.50
2023-11-10T04:29:15.215Z,6.50
2023-11-10T04:31:43.536Z,6.30
2023-11-10T04:34:11.930Z,6.40
2023-11-10T04:36:41.917Z,6.40
2023-11-10T04:39:10.095Z,6.20
2023-11-10T04:41:40.281Z,5.90
2023-11-10T04:44:09.557Z,5.60
2023-11-10T04:46:41.691Z,5.50
2023-11-10T04:49:11.940Z,6.00
2023-11-10T04:51:40.820Z,6.40
2023-11-10T04:54:12.677Z,6.80
2023-11-10T04:56:51.560Z,6.50
2023-11-10T04:59:19.751Z,6.70
2023-11-10T05:01:48.929Z,6.50
2023-11-10T05:04:17.416Z,7.30
2023-11-10T05:06:45.922Z,6.70
2023-11-10T05:09:14.004Z,7.30
2023-11-10T05:11:42.392Z,6.80
2023-11-10T05:14:12.193Z,7.00
2023-11-10T05:16:41.590Z,7.10
2023-11-10T05:19:09.780Z,6.20
2023-11-10T05:21:37.920Z,6.80
2023-11-10T05:24:06.798Z,6.90
2023-11-10T05:26:34.779Z,7.20
2023-11-10T05:29:03.534Z,7.00
2023-11-10T05:31:34.095Z,6.90
2023-11-10T05:34:02.454Z,7.20
2023-11-10T05:36:30.842Z,6.90
2023-11-10T05:39:02.415Z,6.60
2023-11-10T05:41:34.245Z,6.70
2023-11-10T05:44:03.954Z,7.10
2023-11-10T05:46:32.067Z,6.60
2023-11-10T05:49:00.510Z,6.60
2023-11-10T05:51:28.785Z,7.00
2023-11-10T05:53:56.937Z,7.10
2023-11-10T05:56:25.663Z,7.30
2023-11-10T05:58:54.330Z,7.10
2023-11-10T06:01:22.916Z,8.30
2023-11-10T06:03:57.880Z,7.40
2023-11-10T06:06:27.727Z,7.20
2023-11-10T06:08:56.859Z,7.70
2023-11-10T06:11:25.207Z,7.30
2023-11-10T06:13:54.719Z,7.60
2023-11-10T06:16:23.039Z,7.10
2023-11-10T06:18:56.366Z,7.30
2023-11-10T06:21:26.221Z,7.60
2023-11-10T06:23:57.117Z,8.00
2023-11-10T06:26:25.539Z,7.30
2023-11-10T06:28:53.711Z,7.70
2023-11-10T06:31:22.225Z,7.90
2023-11-10T06:33:50.951Z,8.20
2023-11-10T06:36:20.175Z,7.70
2023-11-10T06:38:48.662Z,7.10
2023-11-10T06:41:17.136Z,7.00
2023-11-10T06:43:48.666Z,7.00
2023-11-10T06:46:28.120Z,7.40
2023-11-10T06:48:57.359Z,6.90
2023-11-10T06:51:25.586Z,6.80
2023-11-10T06:53:53.608Z,7.10
2023-11-10T06:56:21.932Z,6.80
2023-11-10T06:58:50.110Z,7.20
2023-11-10T07:01:18.314Z,6.30
2023-11-10T07:03:47.011Z,7.00
2023-11-10T07:06:15.470Z,6.70
2023-11-10T07:08:44.953Z,8.00
2023-11-10T07:11:16.083Z,6.50
2023-11-10T07:13:46.314Z,6.70
2023-11-10T07:16:16.095Z,6.70
2023-11-10T07:18:44.198Z,6.70
2023-11-10T07:21:12.868Z,7.00
2023-11-10T07:23:40.872Z,8.00
2023-11-10T07:26:10.116Z,7.30
2023-11-10T07:28:38.060Z,6.80
2023-11-10T07:31:06.387Z,6.60
2023-11-10T07:33:34.812Z,7.00
2023-11-10T07:36:03.034Z,6.90
2023-11-10T07:38:31.241Z,6.80
2023-11-10T07:40:59.544Z,6.00
2023-11-10T07:43:27.857Z,6.10
2023-11-10T07:45:56.483Z,6.30
2023-11-10T07:48:24.665Z,5.60
2023-11-10T07:50:53.821Z,6.00
2023-11-10T07:53:22.243Z,5.90
2023-11-10T07:55:51.408Z,6.20
2023-11-10T07:58:19.824Z,6.20
2023-11-10T08:00:49.179Z,6.00
2023-11-10T08:03:20.132Z,5.50
2023-11-10T08:05:48.995Z,5.50
2023-11-10T08:08:17.389Z,5.90
2023-11-10T08:10:46.057Z,6.20
2023-11-10T08:13:14.456Z,6.10
2023-11-10T08:15:45.202Z,5.90
2023-11-10T08:18:13.900Z,5.60
2023-11-10T08:20:42.025Z,5.30
2023-11-10T08:23:11.048Z,5.40
2023-11-10T08:25:39.244Z,5.60
2023-11-10T08:28:13.148Z,5.10
2023-11-10T08:30:41.161Z,5.10
2023-11-10T08:33:10.416Z,5.40
2023-11-10T08:35:38.490Z,5.10
2023-11-10T08:38:06.846Z,5.00
2023-11-10T08:40:35.666Z,5.10
2023-11-10T08:43:04.038Z,4.80
2023-11-10T08:45:32.317Z,5.00
2023-11-10T08:48:01.137Z,5.10
2023-11-10T08:50:29.524Z,4.90
2023-11-10T08:52:58.317Z,4.50
2023-11-10T08:55:29.197Z,4.90
2023-11-10T08:57:57.599Z,4.60
2023-11-10T09:00:27.415Z,4.80
2023-11-10T09:02:57.428Z,4.80
2023-11-10T09:05:27.267Z,5.30
2023-11-10T09:07:55.625Z,5.00
2023-11-10T09:10:26.809Z,4.80
2023-11-10T09:12:54.739Z,5.10
2023-11-10T09:15:23.901Z,4.60
2023-11-10T09:17:52.052Z,5.00
2023-11-10T09:20:22.491Z,4.90
2023-11-10T09:22:50.782Z,5.00
2023-11-10T09:25:21.891Z,5.00
2023-11-10T09:27:50.138Z,5.10
2023-11-10T09:30:18.542Z,4.80
2023-11-10T09:32:47.264Z,4.40
2023-11-10T09:35:18.378Z,4.40
2023-11-10T09:37:48.144Z,4.30
2023-11-10T09:40:21.211Z,5.10
2023-11-10T09:42:49.949Z,4.50
2023-11-10T09:45:22.643Z,4.60
2023-11-10T09:47:53.643Z,6.80
2023-11-10T09:50:23.091Z,5.50
2023-11-10T09:52:52.187Z,8.10
2023-11-10T09:55:21.750Z,7.10
2023-11-10T09:57:52.747Z,7.10
2023-11-10T10:00:22.567Z,7.80
2023-11-10T10:02:50.931Z,5.90
2023-11-10T10:05:19.387Z,4.50
2023-11-10T10:07:47.987Z,5.70
2023-11-10T10:10:21.577Z,4.70
2023-11-10T10:12:49.633Z,6.20
2023-11-10T10:15:31.491Z,6.00
2023-11-10T10:18:10.537Z,6.80
2023-11-10T10:20:41.368Z,6.10
2023-11-10T10:23:12.332Z,6.60
2023-11-10T10:25:41.377Z,7.30
2023-11-10T10:28:09.849Z,8.40
2023-11-10T10:30:39.893Z,10.40
2023-11-10T10:33:09.023Z,8.10
2023-11-10T10:35:37.522Z,9.70
2023-11-10T10:38:06.149Z,8.20
2023-11-10T10:40:37.498Z,11.10
2023-11-10T10:43:08.137Z,7.00
2023-11-10T10:45:38.591Z,4.30
2023-11-10T10:48:07.164Z,4.10
2023-11-10T10:50:39.019Z,3.80
2023-11-10T10:53:09.423Z,5.20
2023-11-10T10:55:39.257Z,5.10
2023-11-10T10:58:08.894Z,4.40
2023-11-10T11:00:38.161Z,4.50
2023-11-10T11:03:24.938Z,4.00
2023-11-10T11:06:02.967Z,3.50
2023-11-10T11:08:51.214Z,3.90
2023-11-10T11:11:23.024Z,4.10
2023-11-10T11:13:54.194Z,3.60
2023-11-10T11:16:29.626Z,3.70
2023-11-10T11:18:58.067Z,3.40
2023-11-10T11:21:26.342Z,3.30
2023-11-10T11:23:54.617Z,3.20
2023-11-10T11:26:24.707Z,3.10
2023-11-10T11:29:01.197Z,3.70
2023-11-10T11:31:29.257Z,4.00
2023-11-10T11:34:04.629Z,3.70
2023-11-10T11:36:34.461Z,4.00
2023-11-10T11:39:04.099Z,3.90
2023-11-10T11:41:32.378Z,4.40
2023-11-10T11:44:00.873Z,5.20
2023-11-10T11:46:35.294Z,5.00
2023-11-10T11:49:04.302Z,5.50
2023-11-10T11:51:34.907Z,4.90
2023-11-10T11:54:03.475Z,4.50
2023-11-10T11:56:35.444Z,4.50
2023-11-10T11:59:04.538Z,4.80
2023-11-10T12:01:37.801Z,4.10
2023-11-10T12:04:09.323Z,4.40
2023-11-10T12:06:37.995Z,4.70
2023-11-10T12:09:07.771Z,5.10
2023-11-10T12:11:37.173Z,4.70
2023-11-10T12:14:10.941Z,4.50
2023-11-10T12:16:46.002Z,4.50
2023-11-10T12:19:18.909Z,4.80
2023-11-10T12:21:52.105Z,8.00
2023-11-10T12:24:31.494Z,17.10
2023-11-10T12:27:03.277Z,6.50
2023-11-10T12:29:33.133Z,5.80
2023-11-10T12:32:02.002Z,4.60
2023-11-10T12:34:30.391Z,5.00
2023-11-10T12:37:03.536Z,5.00
2023-11-10T12:39:33.825Z,5.50
2023-11-10T12:42:07.284Z,5.30
2023-11-10T12:44:35.489Z,5.40
2023-11-10T12:47:10.332Z,4.80
2023-11-10T12:49:39.174Z,5.20
2023-11-10T12:52:11.693Z,5.20
2023-11-10T12:54:42.052Z,5.20
2023-11-10T12:57:16.204Z,5.00
2023-11-10T12:59:44.641Z,5.20
2023-11-10T13:02:18.274Z,6.40
2023-11-10T13:04:51.457Z,7.90
2023-11-10T13:07:22.912Z,6.40
2023-11-10T13:09:56.145Z,6.80
2023-11-10T13:12:27.445Z,7.50
2023-11-10T13:14:56.137Z,7.70
2023-11-10T13:17:24.631Z,6.40
2023-11-10T13:19:53.608Z,5.90
2023-11-10T13:22:21.876Z,6.00
2023-11-10T13:24:52.348Z,6.40
2023-11-10T13:27:22.662Z,6.50
2023-11-10T13:29:50.916Z,5.60
2023-11-10T13:32:19.383Z,6.40
2023-11-10T13:34:49.239Z,6.70
2023-11-10T13:37:23.119Z,6.00
2023-11-10T13:39:53.995Z,6.20
2023-11-10T13:42:22.276Z,6.30
2023-11-10T13:45:02.686Z,6.80
2023-11-10T13:50:01.007Z,6.90
2023-11-10T13:52:29.804Z,7.50
2023-11-10T13:54:58.142Z,7.90
2023-11-10T13:57:26.920Z,8.40
2023-11-10T13:59:55.101Z,7.60
2023-11-10T14:02:23.364Z,8.00
2023-11-10T14:04:51.552Z,7.50
2023-11-10T14:07:19.853Z,7.50
2023-11-10T14:09:49.241Z,7.50
2023-11-10T14:12:22.861Z,7.30
2023-11-10T14:14:51.099Z,7.10
2023-11-10T14:17:19.388Z,7.30
2023-11-10T14:19:47.537Z,7.10
2023-11-10T14:22:19.499Z,7.00
2023-11-10T14:24:48.807Z,7.30
2023-11-10T14:27:18.001Z,6.70
2023-11-10T14:29:46.597Z,6.90
2023-11-10T14:32:28.642Z,6.60
2023-11-10T14:37:31.178Z,6.70
2023-11-10T14:39:59.889Z,6.80
2023-11-10T14:42:32.663Z,7.00
2023-11-10T14:45:07.158Z,6.90
2023-11-10T14:47:37.175Z,6.20
2023-11-10T14:50:14.791Z,6.50
2023-11-10T14:52:46.536Z,6.60
2023-11-10T14:55:16.221Z,6.30
2023-11-10T14:57:44.966Z,7.10
2023-11-10T15:00:14.733Z,6.20
2023-11-10T15:02:44.161Z,6.60
2023-11-10T15:05:15.941Z,6.70
2023-11-10T15:07:44.677Z,6.50
2023-11-10T15:10:13.381Z,6.50
2023-11-10T15:12:46.590Z,6.40
2023-11-10T15:15:15.143Z,6.60
2023-11-10T15:17:43.872Z,6.70
2023-11-10T15:20:17.836Z,7.60
2023-11-10T15:22:46.314Z,7.00
2023-11-10T15:25:21.555Z,6.80
2023-11-10T15:27:53.174Z,7.10
2023-11-10T15:30:22.110Z,6.50
2023-11-10T15:32:52.212Z,6.70
2023-11-10T15:35:28.617Z,6.70
2023-11-10T15:37:59.261Z,6.90
2023-11-10T15:40:42.556Z,6.30
2023-11-10T15:43:11.744Z,6.60
2023-11-10T15:45:46.469Z,6.70
2023-11-10T15:48:22.403Z,7.00
2023-11-10T15:50:55.874Z,9.60
2023-11-10T15:53:26.969Z,8.90
2023-11-10T15:56:00.999Z,8.40
2023-11-10T15:58:35.644Z,7.30
2023-11-10T16:01:06.774Z,6.80
2023-11-10T16:03:38.862Z,6.70
2023-11-10T16:06:09.142Z,6.90
2023-11-10T16:08:39.740Z,6.80
2023-11-10T16:11:15.709Z,6.60
2023-11-10T16:13:47.289Z,6.90
2023-11-10T16:16:23.479Z,7.40
2023-11-10T16:18:54.458Z,7.10
2023-11-10T16:21:29.710Z,6.90
2023-11-10T16:24:00.579Z,7.00
2023-11-10T16:26:32.031Z,7.20
2023-11-10T16:29:10.696Z,7.30
2023-11-10T16:31:41.970Z,6.90
2023-11-10T16:34:12.932Z,9.30
2023-11-10T16:36:43.327Z,9.20
2023-11-10T16:39:17.115Z,8.10
2023-11-10T16:41:53.414Z,7.70
2023-11-10T16:44:26.187Z,7.00
2023-11-10T16:46:55.589Z,7.20
2023-11-10T16:49:26.801Z,7.70
2023-11-10T16:52:00.674Z,7.60
2023-11-10T16:54:29.550Z,7.50
2023-11-10T16:56:59.368Z,7.20
2023-11-10T16:59:27.923Z,7.20
2023-11-10T17:01:59.629Z,8.80
2023-11-10T17:04:28.775Z,8.40
2023-11-10T17:06:57.680Z,8.80
2023-11-10T17:09:31.412Z,8.40
2023-11-10T17:12:00.730Z,7.30
2023-11-10T17:14:29.225Z,6.50
2023-11-10T17:16:57.853Z,6.80
2023-11-10T17:19:26.409Z,6.40
2023-11-10T17:21:55.004Z,7.10
2023-11-10T17:24:23.660Z,7.50
2023-11-10T17:26:54.802Z,7.50
2023-11-10T17:29:34.055Z,6.80
2023-11-10T17:32:05.144Z,7.50
2023-11-10T17:34:33.866Z,7.40
2023-11-10T17:37:02.281Z,7.50
2023-11-10T17:39:32.325Z,7.00
2023-11-10T17:42:02.401Z,6.90
2023-11-10T17:44:30.753Z,6.20
2023-11-10T17:47:00.917Z,6.80
2023-11-10T17:49:30.382Z,7.00
2023-11-10T17:51:59.023Z,6.80
2023-11-10T17:54:27.955Z,7.20
2023-11-10T17:56:56.327Z,6.80
2023-11-10T17:59:25.086Z,6.60
2023-11-10T18:01:56.212Z,7.30
2023-11-10T18:04:27.936Z,7.10
2023-11-10T18:06:56.731Z,7.00
2023-11-10T18:09:24.976Z,6.90
2023-11-10T18:11:53.883Z,6.70
2023-11-10T18:14:23.190Z,6.60
2023-11-10T18:16:51.809Z,6.90
2023-11-10T18:19:20.533Z,7.20
2023-11-10T18:21:52.856Z,6.60
2023-11-10T18:24:21.179Z,6.80
2023-11-10T18:26:50.640Z,7.00
2023-11-10T18:29:21.587Z,7.50
2023-11-10T18:31:51.815Z,7.40
2023-11-10T18:34:21.349Z,8.00
2023-11-10T18:36:49.647Z,8.20
2023-11-10T18:39:25.795Z,7.90
2023-11-10T18:41:54.261Z,7.60
2023-11-10T18:44:22.743Z,7.70
2023-11-10T18:46:55.663Z,7.70
2023-11-10T18:49:24.116Z,7.60
2023-11-10T18:51:52.819Z,7.10
2023-11-10T18:54:21.171Z,7.30
2023-11-10T18:56:49.695Z,6.90
2023-11-10T18:59:18.439Z,6.50
2023-11-10T19:01:47.840Z,25.40
2023-11-10T19:04:16.382Z,17.70
2023-11-10T19:06:46.359Z,11.40
2023-11-10T19:09:15.225Z,9.80
2023-11-10T19:11:44.572Z,11.80
2023-11-10T19:14:14.644Z,18.90
2023-11-10T19:16:43.371Z,13.40
2023-11-10T19:19:11.882Z,13.10
2023-11-10T19:21:41.966Z,12.80
2023-11-10T19:24:16.184Z,13.00
2023-11-10T19:26:48.323Z,12.40
2023-11-10T19:29:25.837Z,12.40
2023-11-10T19:31:54.081Z,12.50
2023-11-10T19:34:25.871Z,11.30
2023-11-10T19:37:01.947Z,11.60
2023-11-10T19:39:31.411Z,11.60
2023-11-10T19:42:07.339Z,11.20
2023-11-10T19:44:39.133Z,11.20
2023-11-10T19:47:08.453Z,10.60
2023-11-10T19:49:53.454Z,11.30
2023-11-10T19:52:24.953Z,10.90
2023-11-10T19:54:57.278Z,10.90
2023-11-10T19:57:25.987Z,11.20
2023-11-10T20:02:26.585Z,13.30
2023-11-10T20:04:55.420Z,14.30
2023-11-10T20:07:23.900Z,12.60
2023-11-10T20:09:52.327Z,14.20
2023-11-10T20:12:30.210Z,13.30
2023-11-10T20:15:05.202Z,13.00
2023-11-10T20:17:34.230Z,13.90
2023-11-10T20:20:07.100Z,16.40
2023-11-10T20:22:36.099Z,15.60
2023-11-10T20:25:08.697Z,15.50
2023-11-10T20:27:39.081Z,16.00
2023-11-10T20:30:12.182Z,17.00
2023-11-10T20:32:46.928Z,17.10
2023-11-10T20:35:17.341Z,17.60
2023-11-10T20:37:45.617Z,15.10
2023-11-10T20:40:16.681Z,16.10
2023-11-10T20:42:47.066Z,13.30
2023-11-10T20:45:17.941Z,12.80
2023-11-10T20:47:46.985Z,13.80
2023-11-10T20:50:15.298Z,13.20
2023-11-10T20:52:46.149Z,13.40
2023-11-10T20:55:15.987Z,13.20
2023-11-10T20:57:44.812Z,13.10
2023-11-10T21:00:21.290Z,12.70
2023-11-10T21:02:50.919Z,12.00
2023-11-10T21:05:23.477Z,11.00
2023-11-10T21:07:51.847Z,9.00
2023-11-10T21:10:21.848Z,9.60
2023-11-10T21:12:59.407Z,10.90
2023-11-10T21:15:35.246Z,10.10
2023-11-10T21:18:07.322Z,9.90
2023-11-10T21:20:37.715Z,11.10
2023-11-10T21:23:09.362Z,8.90
2023-11-10T21:25:41.529Z,12.60
2023-11-10T21:28:13.822Z,9.60
2023-11-10T21:30:52.418Z,9.10
2023-11-10T21:33:28.773Z,8.50
2023-11-10T21:36:02.221Z,8.90
2023-11-10T21:38:39.773Z,9.30
2023-11-10T21:41:14.033Z,8.70
2023-11-10T21:43:44.385Z,9.90
2023-11-10T21:46:13.095Z,9.70
2023-11-10T21:48:43.532Z,9.30
2023-11-10T21:51:15.456Z,9.90
2023-11-10T21:53:43.741Z,9.70
2023-11-10T21:56:16.546Z,12.00
2023-11-10T21:58:45.220Z,11.50
2023-11-10T22:01:16.046Z,11.60
2023-11-10T22:03:46.204Z,11.30
2023-11-10T22:06:15.423Z,10.80
2023-11-10T22:08:45.588Z,10.10
2023-11-10T22:11:15.189Z,9.90
2023-11-10T22:13:44.505Z,10.20
2023-11-10T22:16:14.968Z,10.40
2023-11-10T22:18:47.432Z,9.50
2023-11-10T22:21:16.776Z,9.50
2023-11-10T22:23:45.500Z,9.20
2023-11-10T22:26:13.640Z,9.10
2023-11-10T22:28:41.745Z,8.70
2023-11-10T22:31:10.909Z,11.10
2023-11-10T22:33:39.246Z,10.50
2023-11-10T22:36:09.100Z,11.10
2023-11-10T22:38:37.565Z,10.60
2023-11-10T22:41:05.858Z,11.20
2023-11-10T22:43:34.074Z,10.70
2023-11-10T22:46:02.260Z,10.60
2023-11-10T22:48:30.532Z,11.40
2023-11-10T22:51:00.423Z,11.50
2023-11-10T22:53:28.463Z,11.10
2023-11-10T22:55:57.160Z,10.70
2023-11-10T22:58:25.833Z,10.40
2023-11-10T23:00:53.963Z,10.00
2023-11-10T23:03:23.998Z,10.80
2023-11-10T23:05:54.840Z,10.20
2023-11-10T23:08:23.339Z,10.30
2023-11-10T23:10:52.134Z,9.50
2023-11-10T23:13:20.464Z,9.50
2023-11-10T23:15:48.550Z,10.10
2023-11-10T23:18:17.129Z,10.50
2023-11-10T23:20:45.264Z,8.70
2023-11-10T23:23:19.242Z,8.10
2023-11-10T23:25:49.764Z,9.10
2023-11-10T23:28:18.245Z,11.10
2023-11-10T23:30:46.527Z,10.40
2023-11-10T23:33:18.937Z,9.80
2023-11-10T23:35:50.844Z,9.40
2023-11-10T23:38:25.377Z,10.90
2023-11-10T23:40:53.577Z,9.90
2023-11-10T23:43:22.030Z,9.80
2023-11-10T23:45:50.344Z,10.60
2023-11-10T23:48:18.766Z,10.40
2023-11-10T23:50:48.085Z,9.80
2023-11-10T23:53:17.802Z,10.90
2023-11-10T23:55:46.926Z,10.50
2023-11-10T23:58:16.277Z,11.10
